sensor_id;sensor_type;location;lat;lon;timestamp;pressure;altitude;pressure_sealevel;temperature
68745;BMP180;66104;45.456;11.064;2023-03-01T00:02:07;101097.20;;;7.40
68745;BMP180;66104;45.456;11.064;2023-03-01T00:04:44;101083.40;;;7.40
68745;BMP180;66104;45.456;11.064;2023-03-01T00:07:20;101086.60;;;7.40
68745;BMP180;66104;45.456;11.064;2023-03-01T00:09:57;101084.00;;;7.30
68745;BMP180;66104;45.456;11.064;2023-03-01T00:15:14;101086.20;;;7.30
68745;BMP180;66104;45.456;11.064;2023-03-01T00:17:50;101089.20;;;7.30
68745;BMP180;66104;45.456;11.064;2023-03-01T00:20:27;101085.60;;;7.30
68745;BMP180;66104;45.456;11.064;2023-03-01T00:23:05;101076.60;;;7.28
68745;BMP180;66104;45.456;11.064;2023-03-01T00:25:47;101065.00;;;7.30
68745;BMP180;66104;45.456;11.064;2023-03-01T00:28:24;101065.80;;;7.30
68745;BMP180;66104;45.456;11.064;2023-03-01T00:31:05;101064.60;;;7.30
68745;BMP180;66104;45.456;11.064;2023-03-01T00:33:42;101066.00;;;7.40
68745;BMP180;66104;45.456;11.064;2023-03-01T00:36:18;101064.80;;;7.40
68745;BMP180;66104;45.456;11.064;2023-03-01T00:38:56;101055.00;;;7.38
68745;BMP180;66104;45.456;11.064;2023-03-01T00:41:34;101056.60;;;7.30
68745;BMP180;66104;45.456;11.064;2023-03-01T00:44:11;101062.80;;;7.22
68745;BMP180;66104;45.456;11.064;2023-03-01T00:46:52;101063.60;;;7.20
68745;BMP180;66104;45.456;11.064;2023-03-01T00:49:29;101061.80;;;7.20
68745;BMP180;66104;45.456;11.064;2023-03-01T00:52:06;101059.00;;;7.10
68745;BMP180;66104;45.456;11.064;2023-03-01T00:54:43;101054.40;;;7.10
68745;BMP180;66104;45.456;11.064;2023-03-01T00:57:19;101057.40;;;7.06
68745;BMP180;66104;45.456;11.064;2023-03-01T00:59:56;101050.20;;;7.00
68745;BMP180;66104;45.456;11.064;2023-03-01T01:02:33;101048.20;;;7.00
68745;BMP180;66104;45.456;11.064;2023-03-01T01:05:13;101046.00;;;6.90
68745;BMP180;66104;45.456;11.064;2023-03-01T01:07:49;101047.40;;;6.90
68745;BMP180;66104;45.456;11.064;2023-03-01T01:10:26;101030.60;;;6.82
68745;BMP180;66104;45.456;11.064;2023-03-01T01:13:02;101036.20;;;6.80
68745;BMP180;66104;45.456;11.064;2023-03-01T01:15:39;101030.60;;;6.70
68745;BMP180;66104;45.456;11.064;2023-03-01T01:18:16;101030.20;;;6.70
68745;BMP180;66104;45.456;11.064;2023-03-01T01:20:52;101031.40;;;6.60
68745;BMP180;66104;45.456;11.064;2023-03-01T01:23:29;101031.00;;;6.50
68745;BMP180;66104;45.456;11.064;2023-03-01T01:26:11;101024.80;;;6.50
68745;BMP180;66104;45.456;11.064;2023-03-01T01:28:48;101022.20;;;6.50
68745;BMP180;66104;45.456;11.064;2023-03-01T01:31:25;101018.80;;;6.40
68745;BMP180;66104;45.456;11.064;2023-03-01T01:34:05;101013.80;;;6.40
68745;BMP180;66104;45.456;11.064;2023-03-01T01:36:43;101009.60;;;6.30
68745;BMP180;66104;45.456;11.064;2023-03-01T01:39:20;100998.40;;;6.20
68745;BMP180;66104;45.456;11.064;2023-03-01T01:41:57;100993.00;;;6.12
68745;BMP180;66104;45.456;11.064;2023-03-01T01:44:35;100993.80;;;6.00
68745;BMP180;66104;45.456;11.064;2023-03-01T01:47:19;100993.40;;;5.90
68745;BMP180;66104;45.456;11.064;2023-03-01T01:49:58;100991.40;;;5.80
68745;BMP180;66104;45.456;11.064;2023-03-01T01:52:37;100988.20;;;5.70
68745;BMP180;66104;45.456;11.064;2023-03-01T01:55:18;100984.80;;;5.60
68745;BMP180;66104;45.456;11.064;2023-03-01T01:58:02;100982.20;;;5.50
68745;BMP180;66104;45.456;11.064;2023-03-01T02:00:41;100981.00;;;5.40
68745;BMP180;66104;45.456;11.064;2023-03-01T02:03:22;100981.80;;;5.40
68745;BMP180;66104;45.456;11.064;2023-03-01T02:06:04;100983.00;;;5.40
68745;BMP180;66104;45.456;11.064;2023-03-01T02:08:44;100976.00;;;5.36
68745;BMP180;66104;45.456;11.064;2023-03-01T02:11:23;100976.20;;;5.30
68745;BMP180;66104;45.456;11.064;2023-03-01T02:14:01;100975.40;;;5.36
68745;BMP180;66104;45.456;11.064;2023-03-01T02:16:37;100972.20;;;5.30
68745;BMP180;66104;45.456;11.064;2023-03-01T02:19:22;100967.20;;;5.30
68745;BMP180;66104;45.456;11.064;2023-03-01T02:22:17;100963.60;;;5.30
68745;BMP180;66104;45.456;11.064;2023-03-01T02:25:12;100954.60;;;5.20
68745;BMP180;66104;45.456;11.064;2023-03-01T02:28:02;100953.40;;;5.10
68745;BMP180;66104;45.456;11.064;2023-03-01T02:30:40;100946.40;;;5.00
68745;BMP180;66104;45.456;11.064;2023-03-01T02:33:39;100944.40;;;5.00
68745;BMP180;66104;45.456;11.064;2023-03-01T02:36:21;100937.80;;;4.92
68745;BMP180;66104;45.456;11.064;2023-03-01T02:39:04;100939.60;;;4.90
68745;BMP180;66104;45.456;11.064;2023-03-01T02:41:46;100935.80;;;4.80
68745;BMP180;66104;45.456;11.064;2023-03-01T02:44:23;100932.00;;;4.80
68745;BMP180;66104;45.456;11.064;2023-03-01T02:47:03;100933.20;;;4.80
68745;BMP180;66104;45.456;11.064;2023-03-01T02:49:41;100932.80;;;4.80
68745;BMP180;66104;45.456;11.064;2023-03-01T02:52:43;100927.20;;;4.80
68745;BMP180;66104;45.456;11.064;2023-03-01T02:55:22;100915.20;;;4.80
68745;BMP180;66104;45.456;11.064;2023-03-01T02:58:04;100910.20;;;4.80
68745;BMP180;66104;45.456;11.064;2023-03-01T03:00:44;100910.40;;;4.80
68745;BMP180;66104;45.456;11.064;2023-03-01T03:03:24;100902.20;;;4.80
68745;BMP180;66104;45.456;11.064;2023-03-01T03:06:01;100893.40;;;4.80
68745;BMP180;66104;45.456;11.064;2023-03-01T03:08:37;100892.40;;;4.80
68745;BMP180;66104;45.456;11.064;2023-03-01T03:11:15;100887.80;;;4.82
68745;BMP180;66104;45.456;11.064;2023-03-01T03:13:55;100892.40;;;4.90
68745;BMP180;66104;45.456;11.064;2023-03-01T03:16:31;100895.20;;;4.90
68745;BMP180;66104;45.456;11.064;2023-03-01T03:19:08;100893.20;;;4.90
68745;BMP180;66104;45.456;11.064;2023-03-01T03:21:45;100886.00;;;4.90
68745;BMP180;66104;45.456;11.064;2023-03-01T03:24:24;100888.20;;;4.90
68745;BMP180;66104;45.456;11.064;2023-03-01T03:27:03;100886.80;;;5.00
68745;BMP180;66104;45.456;11.064;2023-03-01T03:29:41;100888.00;;;4.90
68745;BMP180;66104;45.456;11.064;2023-03-01T03:32:18;100880.20;;;4.96
68745;BMP180;66104;45.456;11.064;2023-03-01T03:34:55;100878.40;;;4.90
68745;BMP180;66104;45.456;11.064;2023-03-01T03:37:33;100884.00;;;4.90
68745;BMP180;66104;45.456;11.064;2023-03-01T03:40:26;100877.00;;;4.90
68745;BMP180;66104;45.456;11.064;2023-03-01T03:43:03;100875.80;;;4.94
68745;BMP180;66104;45.456;11.064;2023-03-01T03:45:40;100878.20;;;5.00
68745;BMP180;66104;45.456;11.064;2023-03-01T03:48:17;100877.60;;;5.00
68745;BMP180;66104;45.456;11.064;2023-03-01T03:50:56;100869.80;;;5.00
68745;BMP180;66104;45.456;11.064;2023-03-01T03:53:33;100871.00;;;4.96
68745;BMP180;66104;45.456;11.064;2023-03-01T03:56:14;100881.00;;;5.00
68745;BMP180;66104;45.456;11.064;2023-03-01T03:58:51;100876.80;;;5.00
68745;BMP180;66104;45.456;11.064;2023-03-01T04:01:28;100876.60;;;5.00
68745;BMP180;66104;45.456;11.064;2023-03-01T04:04:06;100873.40;;;5.00
68745;BMP180;66104;45.456;11.064;2023-03-01T04:06:42;100877.00;;;5.00
68745;BMP180;66104;45.456;11.064;2023-03-01T04:09:20;100874.80;;;5.00
68745;BMP180;66104;45.456;11.064;2023-03-01T04:11:55;100874.00;;;5.10
68745;BMP180;66104;45.456;11.064;2023-03-01T04:14:32;100873.00;;;5.10
68745;BMP180;66104;45.456;11.064;2023-03-01T04:17:10;100881.40;;;5.10
68745;BMP180;66104;45.456;11.064;2023-03-01T04:19:47;100874.40;;;5.10
68745;BMP180;66104;45.456;11.064;2023-03-01T04:22:26;100866.20;;;5.20
68745;BMP180;66104;45.456;11.064;2023-03-01T04:25:03;100871.20;;;5.20
68745;BMP180;66104;45.456;11.064;2023-03-01T04:27:40;100869.80;;;5.20
68745;BMP180;66104;45.456;11.064;2023-03-01T04:30:20;100867.60;;;5.20
68745;BMP180;66104;45.456;11.064;2023-03-01T04:32:59;100868.00;;;5.28
68745;BMP180;66104;45.456;11.064;2023-03-01T04:35:37;100867.40;;;5.26
68745;BMP180;66104;45.456;11.064;2023-03-01T04:38:14;100862.40;;;5.28
68745;BMP180;66104;45.456;11.064;2023-03-01T04:40:51;100860.00;;;5.30
68745;BMP180;66104;45.456;11.064;2023-03-01T04:43:29;100861.80;;;5.30
68745;BMP180;66104;45.456;11.064;2023-03-01T04:46:08;100860.60;;;5.30
68745;BMP180;66104;45.456;11.064;2023-03-01T04:48:49;100856.40;;;5.40
68745;BMP180;66104;45.456;11.064;2023-03-01T04:51:25;100860.80;;;5.40
68745;BMP180;66104;45.456;11.064;2023-03-01T04:54:02;100863.80;;;5.40
68745;BMP180;66104;45.456;11.064;2023-03-01T04:56:42;100865.00;;;5.50
68745;BMP180;66104;45.456;11.064;2023-03-01T04:59:19;100868.20;;;5.50
68745;BMP180;66104;45.456;11.064;2023-03-01T05:01:58;100868.80;;;5.50
68745;BMP180;66104;45.456;11.064;2023-03-01T05:04:35;100864.60;;;5.50
68745;BMP180;66104;45.456;11.064;2023-03-01T05:07:12;100862.00;;;5.60
68745;BMP180;66104;45.456;11.064;2023-03-01T05:09:53;100851.80;;;5.60
68745;BMP180;66104;45.456;11.064;2023-03-01T05:12:30;100857.20;;;5.60
68745;BMP180;66104;45.456;11.064;2023-03-01T05:15:11;100842.00;;;5.60
68745;BMP180;66104;45.456;11.064;2023-03-01T05:17:48;100848.60;;;5.60
68745;BMP180;66104;45.456;11.064;2023-03-01T05:20:26;100846.80;;;5.50
68745;BMP180;66104;45.456;11.064;2023-03-01T05:23:03;100849.60;;;5.50
68745;BMP180;66104;45.456;11.064;2023-03-01T05:25:39;100857.40;;;5.50
68745;BMP180;66104;45.456;11.064;2023-03-01T05:28:17;100853.60;;;5.50
68745;BMP180;66104;45.456;11.064;2023-03-01T05:30:54;100857.00;;;5.54
68745;BMP180;66104;45.456;11.064;2023-03-01T05:33:31;100854.60;;;5.60
68745;BMP180;66104;45.456;11.064;2023-03-01T05:36:14;100854.20;;;5.60
68745;BMP180;66104;45.456;11.064;2023-03-01T05:38:52;100854.80;;;5.60
68745;BMP180;66104;45.456;11.064;2023-03-01T05:41:31;100852.60;;;5.60
68745;BMP180;66104;45.456;11.064;2023-03-01T05:44:11;100855.00;;;5.50
68745;BMP180;66104;45.456;11.064;2023-03-01T05:46:51;100854.60;;;5.50
68745;BMP180;66104;45.456;11.064;2023-03-01T05:49:28;100852.80;;;5.50
68745;BMP180;66104;45.456;11.064;2023-03-01T05:52:05;100847.80;;;5.50
68745;BMP180;66104;45.456;11.064;2023-03-01T05:54:43;100844.00;;;5.50
68745;BMP180;66104;45.456;11.064;2023-03-01T05:57:20;100842.40;;;5.50
68745;BMP180;66104;45.456;11.064;2023-03-01T05:59:57;100844.00;;;5.50
68745;BMP180;66104;45.456;11.064;2023-03-01T06:02:34;100839.60;;;5.50
68745;BMP180;66104;45.456;11.064;2023-03-01T06:05:17;100837.20;;;5.44
68745;BMP180;66104;45.456;11.064;2023-03-01T06:07:56;100838.40;;;5.40
68745;BMP180;66104;45.456;11.064;2023-03-01T06:10:35;100846.40;;;5.48
68745;BMP180;66104;45.456;11.064;2023-03-01T06:13:11;100849.20;;;5.50
68745;BMP180;66104;45.456;11.064;2023-03-01T06:15:49;100847.00;;;5.50
68745;BMP180;66104;45.456;11.064;2023-03-01T06:18:26;100843.40;;;5.50
68745;BMP180;66104;45.456;11.064;2023-03-01T06:21:03;100847.60;;;5.50
68745;BMP180;66104;45.456;11.064;2023-03-01T06:23:41;100849.20;;;5.50
68745;BMP180;66104;45.456;11.064;2023-03-01T06:26:18;100849.60;;;5.50
68745;BMP180;66104;45.456;11.064;2023-03-01T06:28:55;100845.20;;;5.50
68745;BMP180;66104;45.456;11.064;2023-03-01T06:31:32;100838.80;;;5.60
68745;BMP180;66104;45.456;11.064;2023-03-01T06:34:09;100833.20;;;5.60
68745;BMP180;66104;45.456;11.064;2023-03-01T06:36:49;100835.60;;;5.60
68745;BMP180;66104;45.456;11.064;2023-03-01T06:39:27;100830.40;;;5.70
68745;BMP180;66104;45.456;11.064;2023-03-01T06:42:04;100828.20;;;5.70
68745;BMP180;66104;45.456;11.064;2023-03-01T06:44:42;100824.80;;;5.70
68745;BMP180;66104;45.456;11.064;2023-03-01T06:47:19;100826.60;;;5.78
68745;BMP180;66104;45.456;11.064;2023-03-01T06:49:55;100827.00;;;5.80
68745;BMP180;66104;45.456;11.064;2023-03-01T06:52:33;100826.20;;;5.80
68745;BMP180;66104;45.456;11.064;2023-03-01T06:55:13;100828.60;;;5.80
68745;BMP180;66104;45.456;11.064;2023-03-01T06:57:55;100830.00;;;5.90
68745;BMP180;66104;45.456;11.064;2023-03-01T07:00:33;100828.60;;;5.90
68745;BMP180;66104;45.456;11.064;2023-03-01T07:03:14;100829.60;;;5.96
68745;BMP180;66104;45.456;11.064;2023-03-01T07:05:53;100829.20;;;6.00
68745;BMP180;66104;45.456;11.064;2023-03-01T07:08:30;100836.40;;;6.10
68745;BMP180;66104;45.456;11.064;2023-03-01T07:11:09;100832.60;;;6.10
68745;BMP180;66104;45.456;11.064;2023-03-01T07:13:44;100828.40;;;6.10
68745;BMP180;66104;45.456;11.064;2023-03-01T07:16:21;100823.80;;;6.10
68745;BMP180;66104;45.456;11.064;2023-03-01T07:19:02;100822.80;;;6.10
68745;BMP180;66104;45.456;11.064;2023-03-01T07:21:42;100818.00;;;6.20
68745;BMP180;66104;45.456;11.064;2023-03-01T07:24:19;100824.80;;;6.20
68745;BMP180;66104;45.456;11.064;2023-03-01T07:26:56;100817.20;;;6.20
68745;BMP180;66104;45.456;11.064;2023-03-01T07:29:33;100820.40;;;6.20
68745;BMP180;66104;45.456;11.064;2023-03-01T07:32:14;100815.00;;;6.20
68745;BMP180;66104;45.456;11.064;2023-03-01T07:34:52;100818.00;;;6.20
68745;BMP180;66104;45.456;11.064;2023-03-01T07:37:30;100830.00;;;6.30
68745;BMP180;66104;45.456;11.064;2023-03-01T07:40:14;100815.80;;;6.38
68745;BMP180;66104;45.456;11.064;2023-03-01T07:42:57;100811.00;;;6.40
68745;BMP180;66104;45.456;11.064;2023-03-01T07:45:35;100804.00;;;6.50
68745;BMP180;66104;45.456;11.064;2023-03-01T07:48:12;100801.80;;;6.60
68745;BMP180;66104;45.456;11.064;2023-03-01T07:50:49;100797.20;;;6.70
68745;BMP180;66104;45.456;11.064;2023-03-01T07:53:27;100784.00;;;6.70
68745;BMP180;66104;45.456;11.064;2023-03-01T07:56:13;100780.00;;;6.80
68745;BMP180;66104;45.456;11.064;2023-03-01T07:58:52;100785.40;;;6.90
68745;BMP180;66104;45.456;11.064;2023-03-01T08:01:28;100780.00;;;6.96
68745;BMP180;66104;45.456;11.064;2023-03-01T08:04:06;100785.20;;;7.00
68745;BMP180;66104;45.456;11.064;2023-03-01T08:06:44;100773.40;;;7.10
68745;BMP180;66104;45.456;11.064;2023-03-01T08:09:22;100774.00;;;7.10
68745;BMP180;66104;45.456;11.064;2023-03-01T08:12:01;100762.00;;;7.20
68745;BMP180;66104;45.456;11.064;2023-03-01T08:17:29;100749.00;;;7.26
68745;BMP180;66104;45.456;11.064;2023-03-01T08:20:09;100749.00;;;7.30
68745;BMP180;66104;45.456;11.064;2023-03-01T08:22:48;100747.20;;;7.30
68745;BMP180;66104;45.456;11.064;2023-03-01T08:25:25;100746.00;;;7.40
68745;BMP180;66104;45.456;11.064;2023-03-01T08:28:11;100743.40;;;7.44
68745;BMP180;66104;45.456;11.064;2023-03-01T08:30:48;100737.40;;;7.60
68745;BMP180;66104;45.456;11.064;2023-03-01T08:33:25;100740.20;;;7.70
68745;BMP180;66104;45.456;11.064;2023-03-01T08:36:10;100739.20;;;7.70
68745;BMP180;66104;45.456;11.064;2023-03-01T08:38:47;100741.00;;;7.78
68745;BMP180;66104;45.456;11.064;2023-03-01T08:41:25;100750.60;;;7.80
68745;BMP180;66104;45.456;11.064;2023-03-01T08:44:03;100748.20;;;7.80
68745;BMP180;66104;45.456;11.064;2023-03-01T08:46:42;100744.00;;;7.80
68745;BMP180;66104;45.456;11.064;2023-03-01T08:49:21;100740.60;;;7.90
68745;BMP180;66104;45.456;11.064;2023-03-01T08:52:01;100732.80;;;7.90
68745;BMP180;66104;45.456;11.064;2023-03-01T08:54:40;100726.80;;;7.90
68745;BMP180;66104;45.456;11.064;2023-03-01T08:57:17;100718.60;;;7.92
68745;BMP180;66104;45.456;11.064;2023-03-01T08:59:55;100709.80;;;8.00
68745;BMP180;66104;45.456;11.064;2023-03-01T09:02:34;100711.60;;;8.00
68745;BMP180;66104;45.456;11.064;2023-03-01T09:05:17;100710.00;;;8.10
68745;BMP180;66104;45.456;11.064;2023-03-01T09:07:55;100707.40;;;8.10
68745;BMP180;66104;45.456;11.064;2023-03-01T09:10:33;100712.20;;;8.10
68745;BMP180;66104;45.456;11.064;2023-03-01T09:13:14;100710.80;;;8.10
68745;BMP180;66104;45.456;11.064;2023-03-01T09:15:51;100706.00;;;8.10
68745;BMP180;66104;45.456;11.064;2023-03-01T09:18:27;100701.00;;;8.10
68745;BMP180;66104;45.456;11.064;2023-03-01T09:21:11;100696.00;;;8.10
68745;BMP180;66104;45.456;11.064;2023-03-01T09:23:49;100690.60;;;8.10
68745;BMP180;66104;45.456;11.064;2023-03-01T09:26:26;100690.80;;;8.20
68745;BMP180;66104;45.456;11.064;2023-03-01T09:29:04;100691.80;;;8.20
68745;BMP180;66104;45.456;11.064;2023-03-01T09:31:42;100686.60;;;8.20
68745;BMP180;66104;45.456;11.064;2023-03-01T09:34:19;100685.80;;;8.30
68745;BMP180;66104;45.456;11.064;2023-03-01T09:36:58;100690.60;;;8.30
68745;BMP180;66104;45.456;11.064;2023-03-01T09:39:36;100686.60;;;8.40
68745;BMP180;66104;45.456;11.064;2023-03-01T09:42:17;100677.40;;;8.40
68745;BMP180;66104;45.456;11.064;2023-03-01T09:45:00;100675.80;;;8.44
68745;BMP180;66104;45.456;11.064;2023-03-01T09:47:42;100674.40;;;8.50
68745;BMP180;66104;45.456;11.064;2023-03-01T09:50:31;100672.40;;;8.50
68745;BMP180;66104;45.456;11.064;2023-03-01T09:53:13;100660.60;;;8.60
68745;BMP180;66104;45.456;11.064;2023-03-01T09:55:59;100655.60;;;8.60
68745;BMP180;66104;45.456;11.064;2023-03-01T09:58:50;100649.20;;;8.70
68745;BMP180;66104;45.456;11.064;2023-03-01T10:01:46;100649.60;;;8.70
68745;BMP180;66104;45.456;11.064;2023-03-01T10:04:47;100644.00;;;8.80
68745;BMP180;66104;45.456;11.064;2023-03-01T10:07:40;100644.80;;;8.80
68745;BMP180;66104;45.456;11.064;2023-03-01T10:10:34;100644.60;;;8.80
68745;BMP180;66104;45.456;11.064;2023-03-01T10:13:22;100644.40;;;8.90
68745;BMP180;66104;45.456;11.064;2023-03-01T10:18:52;100648.80;;;8.98
68745;BMP180;66104;45.456;11.064;2023-03-01T10:21:39;100645.60;;;9.00
68745;BMP180;66104;45.456;11.064;2023-03-01T10:24:21;100638.40;;;9.00
68745;BMP180;66104;45.456;11.064;2023-03-01T10:27:05;100637.80;;;9.10
68745;BMP180;66104;45.456;11.064;2023-03-01T10:30:02;100636.60;;;9.10
68745;BMP180;66104;45.456;11.064;2023-03-01T10:32:43;100642.40;;;9.20
68745;BMP180;66104;45.456;11.064;2023-03-01T10:35:31;100640.00;;;9.28
68745;BMP180;66104;45.456;11.064;2023-03-01T10:38:12;100636.00;;;9.30
68745;BMP180;66104;45.456;11.064;2023-03-01T10:41:04;100634.00;;;9.40
68745;BMP180;66104;45.456;11.064;2023-03-01T10:43:51;100625.00;;;9.46
68745;BMP180;66104;45.456;11.064;2023-03-01T10:46:33;100619.20;;;9.50
68745;BMP180;66104;45.456;11.064;2023-03-01T10:49:20;100618.00;;;9.50
68745;BMP180;66104;45.456;11.064;2023-03-01T10:52:16;100615.80;;;9.60
68745;BMP180;66104;45.456;11.064;2023-03-01T10:55:01;100614.40;;;9.60
68745;BMP180;66104;45.456;11.064;2023-03-01T10:57:41;100614.60;;;9.60
68745;BMP180;66104;45.456;11.064;2023-03-01T11:00:34;100610.60;;;9.70
68745;BMP180;66104;45.456;11.064;2023-03-01T11:03:24;100604.20;;;9.80
68745;BMP180;66104;45.456;11.064;2023-03-01T11:06:25;100605.00;;;9.90
68745;BMP180;66104;45.456;11.064;2023-03-01T11:09:15;100612.40;;;10.00
68745;BMP180;66104;45.456;11.064;2023-03-01T11:12:00;100612.60;;;10.08
68745;BMP180;66104;45.456;11.064;2023-03-01T11:14:45;100617.20;;;10.10
68745;BMP180;66104;45.456;11.064;2023-03-01T11:17:30;100617.40;;;10.10
68745;BMP180;66104;45.456;11.064;2023-03-01T11:20:29;100619.80;;;10.10
68745;BMP180;66104;45.456;11.064;2023-03-01T11:23:12;100615.60;;;10.10
68745;BMP180;66104;45.456;11.064;2023-03-01T11:25:58;100616.00;;;10.10
68745;BMP180;66104;45.456;11.064;2023-03-01T11:28:39;100628.20;;;10.10
68745;BMP180;66104;45.456;11.064;2023-03-01T11:31:17;100636.40;;;10.10
68745;BMP180;66104;45.456;11.064;2023-03-01T11:33:59;100638.60;;;10.10
68745;BMP180;66104;45.456;11.064;2023-03-01T11:36:44;100643.40;;;10.10
68745;BMP180;66104;45.456;11.064;2023-03-01T11:39:31;100641.40;;;10.00
68745;BMP180;66104;45.456;11.064;2023-03-01T11:42:18;100648.40;;;10.00
68745;BMP180;66104;45.456;11.064;2023-03-01T11:45:03;100649.80;;;10.00
68745;BMP180;66104;45.456;11.064;2023-03-01T11:48:17;100649.40;;;10.00
68745;BMP180;66104;45.456;11.064;2023-03-01T11:51:07;100661.00;;;10.08
68745;BMP180;66104;45.456;11.064;2023-03-01T11:54:04;100659.20;;;10.00
68745;BMP180;66104;45.456;11.064;2023-03-01T11:56:50;100656.40;;;10.00
68745;BMP180;66104;45.456;11.064;2023-03-01T12:06:40;100652.00;;;10.00
68745;BMP180;66104;45.456;11.064;2023-03-01T12:09:51;100657.80;;;9.92
68745;BMP180;66104;45.456;11.064;2023-03-01T12:12:42;100660.00;;;9.90
68745;BMP180;66104;45.456;11.064;2023-03-01T12:16:03;100662.60;;;9.86
68745;BMP180;66104;45.456;11.064;2023-03-01T12:19:08;100671.80;;;9.80
68745;BMP180;66104;45.456;11.064;2023-03-01T12:22:08;100669.60;;;9.80
68745;BMP180;66104;45.456;11.064;2023-03-01T12:25:23;100683.20;;;9.80
68745;BMP180;66104;45.456;11.064;2023-03-01T12:32:17;100671.20;;;9.70
68745;BMP180;66104;45.456;11.064;2023-03-01T12:35:14;100674.80;;;9.70
68745;BMP180;66104;45.456;11.064;2023-03-01T12:38:05;100675.00;;;9.66
68745;BMP180;66104;45.456;11.064;2023-03-01T12:41:04;100664.00;;;9.60
68745;BMP180;66104;45.456;11.064;2023-03-01T12:43:54;100664.60;;;9.60
68745;BMP180;66104;45.456;11.064;2023-03-01T12:46:52;100660.40;;;9.60
68745;BMP180;66104;45.456;11.064;2023-03-01T12:49:36;100660.00;;;9.60
68745;BMP180;66104;45.456;11.064;2023-03-01T12:52:22;100652.20;;;9.60
68745;BMP180;66104;45.456;11.064;2023-03-01T12:55:05;100649.20;;;9.60
68745;BMP180;66104;45.456;11.064;2023-03-01T12:57:51;100633.00;;;9.70
68745;BMP180;66104;45.456;11.064;2023-03-01T13:00:35;100626.20;;;9.70
68745;BMP180;66104;45.456;11.064;2023-03-01T13:03:29;100636.80;;;9.70
68745;BMP180;66104;45.456;11.064;2023-03-01T13:06:15;100625.00;;;9.80
68745;BMP180;66104;45.456;11.064;2023-03-01T13:09:03;100618.20;;;9.80
68745;BMP180;66104;45.456;11.064;2023-03-01T13:11:43;100619.60;;;9.90
68745;BMP180;66104;45.456;11.064;2023-03-01T13:14:52;100623.00;;;9.90
68745;BMP180;66104;45.456;11.064;2023-03-01T13:17:47;100624.60;;;9.90
68745;BMP180;66104;45.456;11.064;2023-03-01T13:20:31;100619.00;;;9.90
68745;BMP180;66104;45.456;11.064;2023-03-01T13:23:23;100602.20;;;10.00
68745;BMP180;66104;45.456;11.064;2023-03-01T13:26:12;100604.60;;;10.00
68745;BMP180;66104;45.456;11.064;2023-03-01T13:28:57;100587.00;;;10.00
68745;BMP180;66104;45.456;11.064;2023-03-01T13:32:02;100592.60;;;10.00
68745;BMP180;66104;45.456;11.064;2023-03-01T13:34:51;100589.80;;;10.10
68745;BMP180;66104;45.456;11.064;2023-03-01T13:37:41;100595.20;;;10.10
68745;BMP180;66104;45.456;11.064;2023-03-01T13:41:01;100614.60;;;10.10
68745;BMP180;66104;45.456;11.064;2023-03-01T13:43:40;100609.60;;;10.10
68745;BMP180;66104;45.456;11.064;2023-03-01T13:46:23;100584.80;;;10.10
68745;BMP180;66104;45.456;11.064;2023-03-01T13:49:02;100592.00;;;10.10
68745;BMP180;66104;45.456;11.064;2023-03-01T13:51:39;100583.40;;;10.10
68745;BMP180;66104;45.456;11.064;2023-03-01T13:54:19;100580.40;;;10.10
68745;BMP180;66104;45.456;11.064;2023-03-01T13:57:00;100582.00;;;10.08
68745;BMP180;66104;45.456;11.064;2023-03-01T13:59:49;100598.00;;;10.00
68745;BMP180;66104;45.456;11.064;2023-03-01T14:02:24;100604.40;;;9.98
68745;BMP180;66104;45.456;11.064;2023-03-01T14:05:05;100601.60;;;9.90
68745;BMP180;66104;45.456;11.064;2023-03-01T14:07:52;100610.80;;;9.80
68745;BMP180;66104;45.456;11.064;2023-03-01T14:10:35;100606.40;;;9.70
68745;BMP180;66104;45.456;11.064;2023-03-01T14:13:33;100611.20;;;9.70
68745;BMP180;66104;45.456;11.064;2023-03-01T14:16:22;100612.80;;;9.60
68745;BMP180;66104;45.456;11.064;2023-03-01T14:19:13;100619.40;;;9.54
68745;BMP180;66104;45.456;11.064;2023-03-01T14:22:15;100616.00;;;9.50
68745;BMP180;66104;45.456;11.064;2023-03-01T14:24:56;100628.00;;;9.40
68745;BMP180;66104;45.456;11.064;2023-03-01T14:27:38;100625.60;;;9.24
68745;BMP180;66104;45.456;11.064;2023-03-01T14:30:21;100608.80;;;9.10
68745;BMP180;66104;45.456;11.064;2023-03-01T14:33:01;100621.40;;;9.00
68745;BMP180;66104;45.456;11.064;2023-03-01T14:35:39;100646.00;;;8.90
68745;BMP180;66104;45.456;11.064;2023-03-01T14:38:28;100620.80;;;8.80
68745;BMP180;66104;45.456;11.064;2023-03-01T14:41:07;100628.60;;;8.70
68745;BMP180;66104;45.456;11.064;2023-03-01T14:43:49;100632.00;;;8.70
68745;BMP180;66104;45.456;11.064;2023-03-01T14:46:32;100623.00;;;8.62
68745;BMP180;66104;45.456;11.064;2023-03-01T14:49:16;100617.00;;;8.68
68745;BMP180;66104;45.456;11.064;2023-03-01T14:51:58;100620.80;;;8.70
68745;BMP180;66104;45.456;11.064;2023-03-01T14:54:44;100624.20;;;8.70
68745;BMP180;66104;45.456;11.064;2023-03-01T14:57:25;100606.40;;;8.70
68745;BMP180;66104;45.456;11.064;2023-03-01T15:00:06;100603.40;;;8.70
68745;BMP180;66104;45.456;11.064;2023-03-01T15:02:43;100597.80;;;8.70
68745;BMP180;66104;45.456;11.064;2023-03-01T15:05:23;100598.00;;;8.70
68745;BMP180;66104;45.456;11.064;2023-03-01T15:08:01;100594.40;;;8.70
68745;BMP180;66104;45.456;11.064;2023-03-01T15:10:40;100589.00;;;8.70
68745;BMP180;66104;45.456;11.064;2023-03-01T15:13:24;100591.20;;;8.66
68745;BMP180;66104;45.456;11.064;2023-03-01T15:16:19;100589.00;;;8.70
68745;BMP180;66104;45.456;11.064;2023-03-01T15:18:59;100585.80;;;8.70
68745;BMP180;66104;45.456;11.064;2023-03-01T15:21:48;100577.00;;;8.70
68745;BMP180;66104;45.456;11.064;2023-03-01T15:24:28;100577.40;;;8.80
68745;BMP180;66104;45.456;11.064;2023-03-01T15:27:13;100580.60;;;8.90
68745;BMP180;66104;45.456;11.064;2023-03-01T15:29:55;100588.20;;;8.90
68745;BMP180;66104;45.456;11.064;2023-03-01T15:32:36;100590.80;;;8.90
68745;BMP180;66104;45.456;11.064;2023-03-01T15:35:42;100587.00;;;8.90
68745;BMP180;66104;45.456;11.064;2023-03-01T15:38:49;100593.40;;;8.90
68745;BMP180;66104;45.456;11.064;2023-03-01T15:41:32;100596.80;;;8.90